Time;durP1;ratioP1;P1;durP2;ratioP2;P2;SDS_P1;SDS_P2;PMS_P1;PMS_P2;Temp;Humidity;BMP_temperature;BMP_pressure;BME280_temperature;BME280_humidity;BME280_pressure;Samples;Min_cycle;Max_cycle;Signal;HPM_P1;HPM_P2
2023/04/14 00:01:35;;;;;;;;;;;;;;;6.31;75.08;97120.66;5069967;28;20019;-54
2023/04/14 00:04:03;;;;;;;;;;;;;;;6.29;75.30;97122.88;5065076;28;19940;-55
2023/04/14 00:06:31;;;;;;;;;;;;;;;6.26;75.54;97126.97;5070156;28;20381;-55
2023/04/14 00:08:59;;;;;;;;;;;;;;;6.43;74.76;97120.13;5070611;28;19986;-55
2023/04/14 00:11:28;;;;;;;;;;;;;;;6.25;75.31;97127.28;5063268;28;19975;-56
2023/04/14 00:14:00;;;;;;;;;;;;;;;6.44;74.44;97116.34;5061497;28;19948;-55
2023/04/14 00:16:27;;;;;;;;;;;;;;;6.36;74.83;97117.88;5068998;28;19929;-55
2023/04/14 00:18:55;;;;;;;;;;;;;;;6.29;74.85;97118.28;5065494;28;19929;-56
2023/04/14 00:21:23;;;;;;;;;;;;;;;6.32;75.33;97111.47;5069241;28;19970;-55
2023/04/14 00:23:51;;;;;;;;;;;;;;;6.30;75.20;97114.47;5069463;28;19932;-55
2023/04/14 00:26:19;;;;;;;;;;;;;;;6.28;75.38;97111.28;5061915;28;19928;-55
2023/04/14 00:28:47;;;;;;;;;;;;;;;6.22;75.20;97112.47;5066975;28;19925;-56
2023/04/14 00:31:17;;;;;;;;;;;;;;;6.21;75.52;97112.78;5066309;28;20400;-55
2023/04/14 00:33:45;;;;;;;;;;;;;;;6.25;75.34;97113.78;5067461;28;19939;-55
2023/04/14 00:36:12;;;;;;;;;;;;;;;6.06;76.16;97122.00;5064322;28;20677;-57
2023/04/14 00:38:40;;;;;;;;;;;;;;;6.19;75.89;97120.41;5066297;28;19932;-55
2023/04/14 00:41:08;;;;;;;;;;;;;;;6.05;76.27;97120.41;5076578;28;19931;-55
2023/04/14 00:43:37;;;;;;;;;;;;;;;6.16;75.73;97121.78;5061326;28;19925;-55
2023/04/14 00:46:05;;;;;;;;;;;;;;;6.11;76.14;97129.97;5061204;28;19974;-55
2023/04/14 00:48:35;;;;;;;;;;;;;;;6.00;76.60;97131.28;5071900;28;19929;-55
2023/04/14 00:51:03;;;;;;;;;;;;;;;5.96;76.22;97141.06;5079813;28;19924;-56
2023/04/14 00:53:31;;;;;;;;;;;;;;;6.10;76.33;97149.16;5058074;28;19935;-57
2023/04/14 00:55:59;;;;;;;;;;;;;;;6.10;76.01;97141.88;5057982;28;19935;-56
2023/04/14 00:58:27;;;;;;;;;;;;;;;5.99;76.27;97148.56;5057551;28;19932;-54
2023/04/14 01:00:55;;;;;;;;;;;;;;;5.86;77.03;97160.09;5061422;28;19929;-55
2023/04/14 01:03:24;;;;;;;;;;;;;;;6.00;76.73;97152.84;5067764;28;19928;-55
2023/04/14 01:05:53;;;;;;;;;;;;;;;5.99;76.53;97156.66;5062279;28;20356;-59
2023/04/14 01:08:21;;;;;;;;;;;;;;;6.10;75.62;97154.56;5065240;28;19932;-55
2023/04/14 01:10:50;;;;;;;;;;;;;;;5.99;76.07;97159.34;5082156;28;19924;-55
2023/04/14 01:13:22;;;;;;;;;;;;;;;6.00;76.21;97161.75;5086640;28;19928;-55
2023/04/14 01:15:51;;;;;;;;;;;;;;;6.00;76.46;97161.75;5074965;28;19975;-56
2023/04/14 01:18:22;;;;;;;;;;;;;;;6.09;76.41;97169.94;5070146;28;20426;-55
2023/04/14 01:20:55;;;;;;;;;;;;;;;6.06;76.17;97170.53;5060193;28;19947;-58
2023/04/14 01:23:23;;;;;;;;;;;;;;;6.02;76.26;97169.56;5071321;28;19928;-54
2023/04/14 01:26:07;;;;;;;;;;;;;;;6.03;75.64;97165.75;5069013;28;19928;-60
2023/04/14 01:28:42;;;;;;;;;;;;;;;5.92;75.92;97178.63;5066378;28;20161;-54
2023/04/14 01:31:19;;;;;;;;;;;;;;;5.93;76.81;97168.66;5074415;28;19928;-55
2023/04/14 01:33:49;;;;;;;;;;;;;;;5.96;76.09;97168.03;5068715;28;20027;-55
2023/04/14 01:36:19;;;;;;;;;;;;;;;5.96;76.35;97170.72;5074393;28;19935;-56
2023/04/14 01:38:46;;;;;;;;;;;;;;;5.77;76.86;97160.81;5073464;28;19924;-55
2023/04/14 01:41:15;;;;;;;;;;;;;;;5.86;77.08;97160.09;5073709;28;19993;-55
2023/04/14 01:43:44;;;;;;;;;;;;;;;5.90;76.98;97161.91;5075292;28;20385;-56
2023/04/14 01:46:12;;;;;;;;;;;;;;;5.79;77.21;97161.28;5086552;28;19928;-55
2023/04/14 01:48:42;;;;;;;;;;;;;;;5.85;77.07;97150.41;5076143;28;19928;-55
2023/04/14 01:51:09;;;;;;;;;;;;;;;5.74;77.46;97147.91;5070645;28;19931;-54
2023/04/14 01:53:38;;;;;;;;;;;;;;;5.87;77.07;97142.84;5066727;28;19924;-55
2023/04/14 01:56:07;;;;;;;;;;;;;;;5.85;77.18;97143.13;5070518;28;19979;-58
2023/04/14 01:58:35;;;;;;;;;;;;;;;5.75;77.64;97146.03;5064746;28;19932;-55
2023/04/14 02:01:31;;;;;;;;;;;;;;;5.71;77.36;97148.53;5060813;28;19928;-55
2023/04/14 02:04:00;;;;;;;;;;;;;;;5.70;77.45;97155.03;5082621;28;19925;-54
2023/04/14 02:06:30;;;;;;;;;;;;;;;5.73;77.99;97156.31;5067433;28;20403;-55
2023/04/14 02:08:59;;;;;;;;;;;;;;;5.84;77.14;97151.53;5064489;28;19924;-55
2023/04/14 02:11:27;;;;;;;;;;;;;;;5.83;77.34;97150.72;5063538;28;20680;-56
2023/04/14 02:13:57;;;;;;;;;;;;;;;5.88;77.08;97149.84;5061807;28;19931;-55
2023/04/14 02:16:24;;;;;;;;;;;;;;;5.72;76.94;97144.72;5060326;28;19924;-55
2023/04/14 02:18:52;;;;;;;;;;;;;;;5.90;77.22;97139.53;5066387;28;19924;-56
2023/04/14 02:21:22;;;;;;;;;;;;;;;5.73;77.60;97140.94;5065876;28;19924;-55
2023/04/14 02:23:50;;;;;;;;;;;;;;;5.74;77.69;97129.06;5066483;28;20293;-55
2023/04/14 02:26:18;;;;;;;;;;;;;;;5.61;78.29;97127.16;5068458;28;20023;-57
2023/04/14 02:28:49;;;;;;;;;;;;;;;5.75;77.89;97130.69;5067523;28;19936;-55
2023/04/14 02:31:20;;;;;;;;;;;;;;;5.82;77.46;97132.97;5060082;28;19931;-55
2023/04/14 02:33:48;;;;;;;;;;;;;;;5.81;77.44;97131.38;5071363;28;19931;-56
2023/04/14 02:36:16;;;;;;;;;;;;;;;5.85;76.98;97131.56;5070279;28;19929;-56
2023/04/14 02:38:47;;;;;;;;;;;;;;;5.64;78.05;97142.72;5070725;28;19932;-55
2023/04/14 02:41:17;;;;;;;;;;;;;;;5.59;78.28;97156.28;5079285;28;20374;-55
2023/04/14 02:43:46;;;;;;;;;;;;;;;5.64;78.42;97158.09;5069177;28;20405;-56
2023/04/14 02:46:15;;;;;;;;;;;;;;;5.79;77.23;97163.19;5068485;28;19931;-55
2023/04/14 02:48:43;;;;;;;;;;;;;;;5.76;77.60;97156.53;5066066;28;20322;-56
2023/04/14 02:51:12;;;;;;;;;;;;;;;5.62;77.71;97154.91;5068133;28;20381;-54
2023/04/14 02:53:39;;;;;;;;;;;;;;;5.66;78.24;97166.69;5065356;28;19931;-55
2023/04/14 02:56:29;;;;;;;;;;;;;;;5.84;77.64;97163.09;5066529;28;19928;-55
2023/04/14 02:58:59;;;;;;;;;;;;;;;5.63;77.88;97161.88;5071264;28;19924;-56
2023/04/14 03:01:31;;;;;;;;;;;;;;;5.67;78.58;97168.28;5067599;28;19925;-56
2023/04/14 03:04:00;;;;;;;;;;;;;;;5.50;78.57;97163.47;5071512;28;19974;-55
2023/04/14 03:06:32;;;;;;;;;;;;;;;5.57;78.55;97158.47;5053064;28;19931;-56
2023/04/14 03:09:00;;;;;;;;;;;;;;;5.74;78.29;97161.41;5070303;28;19924;-55
2023/04/14 03:11:31;;;;;;;;;;;;;;;5.70;77.85;97152.31;5052725;28;19932;-58
2023/04/14 03:13:58;;;;;;;;;;;;;;;5.78;77.26;97146.22;5064084;28;20436;-55
2023/04/14 03:16:27;;;;;;;;;;;;;;;5.57;78.02;97142.31;5060431;28;19935;-56
2023/04/14 03:18:55;;;;;;;;;;;;;;;5.60;78.28;97135.56;5063021;28;19928;-55
2023/04/14 03:21:24;;;;;;;;;;;;;;;5.45;78.78;97136.63;5064913;28;19948;-55
2023/04/14 03:23:54;;;;;;;;;;;;;;;5.56;78.37;97127.25;5057286;28;19932;-59
2023/04/14 03:26:22;;;;;;;;;;;;;;;5.53;78.39;97131.31;5062090;28;19932;-56
2023/04/14 03:28:52;;;;;;;;;;;;;;;5.57;78.37;97128.06;5069929;28;19935;-55
2023/04/14 03:31:21;;;;;;;;;;;;;;;5.62;78.36;97128.75;5061185;28;19964;-57
2023/04/14 03:33:56;;;;;;;;;;;;;;;5.49;78.93;97134.94;5081830;28;19925;-58
2023/04/14 03:36:29;;;;;;;;;;;;;;;5.54;78.55;97124.06;5064392;28;19967;-56
2023/04/14 03:39:00;;;;;;;;;;;;;;;5.48;78.39;97122.53;5070748;28;19971;-55
2023/04/14 03:41:33;;;;;;;;;;;;;;;5.42;78.98;97129.91;5059112;28;19931;-56
2023/04/14 03:44:02;;;;;;;;;;;;;;;5.58;78.29;97133.13;5063876;28;19924;-55
2023/04/14 03:46:30;;;;;;;;;;;;;;;5.58;78.59;97135.03;5060448;28;19924;-55
2023/04/14 03:48:58;;;;;;;;;;;;;;;5.68;77.91;97140.22;5069932;28;20026;-56
2023/04/14 03:51:28;;;;;;;;;;;;;;;5.69;78.04;97139.94;5066657;28;20369;-54
2023/04/14 03:53:56;;;;;;;;;;;;;;;5.44;78.70;97137.72;5059437;28;20274;-56
2023/04/14 03:56:27;;;;;;;;;;;;;;;5.42;78.89;97129.91;5060214;28;19979;-54
2023/04/14 03:58:56;;;;;;;;;;;;;;;5.45;79.11;97139.31;5064513;28;19939;-55
2023/04/14 04:01:26;;;;;;;;;;;;;;;5.37;78.85;97140.78;5062685;28;19929;-55
2023/04/14 04:03:54;;;;;;;;;;;;;;;5.40;79.09;97136.72;5066907;28;19932;-57
2023/04/14 04:06:23;;;;;;;;;;;;;;;5.46;79.28;97135.53;5061919;28;19940;-55
2023/04/14 04:08:51;;;;;;;;;;;;;;;5.41;79.25;97139.09;5069057;28;19968;-60
2023/04/14 04:11:19;;;;;;;;;;;;;;;5.60;79.21;97136.34;5068247;28;19925;-55
2023/04/14 04:13:53;;;;;;;;;;;;;;;5.68;78.14;97135.63;5058261;28;19968;-55
2023/04/14 04:16:21;;;;;;;;;;;;;;;5.53;78.48;97125.94;5058854;28;19932;-55
2023/04/14 04:18:50;;;;;;;;;;;;;;;5.62;78.75;97122.56;5064632;28;19931;-55
2023/04/14 04:21:27;;;;;;;;;;;;;;;5.48;78.80;97114.47;5073860;28;19933;-57
2023/04/14 04:23:55;;;;;;;;;;;;;;;5.47;79.06;97112.88;5055166;28;19966;-57
2023/04/14 04:26:24;;;;;;;;;;;;;;;5.37;79.43;97119.22;5058469;28;19925;-56
2023/04/14 04:28:52;;;;;;;;;;;;;;;5.39;79.65;97124.34;5081516;28;19932;-58
2023/04/14 04:31:20;;;;;;;;;;;;;;;5.59;78.89;97117.75;5065349;28;19933;-55
2023/04/14 04:33:47;;;;;;;;;;;;;;;5.44;79.03;97116.97;5064265;28;19956;-55
2023/04/14 04:36:17;;;;;;;;;;;;;;;5.35;79.32;97112.56;5060816;28;20385;-57
2023/04/14 04:38:45;;;;;;;;;;;;;;;5.50;78.78;97113.09;5058961;28;19924;-60
2023/04/14 04:41:20;;;;;;;;;;;;;;;5.53;78.65;97108.97;5063169;28;19924;-55
2023/04/14 04:43:49;;;;;;;;;;;;;;;5.56;78.70;97108.41;5058351;28;19929;-55
2023/04/14 04:46:35;;;;;;;;;;;;;;;5.54;78.96;97110.59;5062179;28;19924;-55
2023/04/14 04:49:03;;;;;;;;;;;;;;;5.59;78.51;97117.75;5040068;28;19963;-55
2023/04/14 04:51:32;;;;;;;;;;;;;;;5.49;78.61;97118.78;5059943;28;20412;-56
2023/04/14 04:54:00;;;;;;;;;;;;;;;5.49;78.87;97118.78;5062262;28;19931;-55
2023/04/14 04:56:31;;;;;;;;;;;;;;;5.59;78.21;97121.25;5064262;28;19928;-57
2023/04/14 04:58:59;;;;;;;;;;;;;;;5.60;78.04;97128.25;5060179;28;19939;-55
2023/04/14 05:01:27;;;;;;;;;;;;;;;5.70;77.60;97130.78;5062330;28;20350;-58
2023/04/14 05:03:55;;;;;;;;;;;;;;;5.54;78.21;97129.47;5067285;28;20281;-55
2023/04/14 05:06:22;;;;;;;;;;;;;;;5.74;77.42;97145.22;5062135;28;20982;-57
2023/04/14 05:08:53;;;;;;;;;;;;;;;5.69;77.46;97128.34;5068504;28;19924;-56
2023/04/14 05:11:20;;;;;;;;;;;;;;;5.76;77.70;97134.97;5059441;28;20396;-58
2023/04/14 05:13:48;;;;;;;;;;;;;;;5.72;77.74;97142.03;5054708;28;19943;-59
2023/04/14 05:16:17;;;;;;;;;;;;;;;5.64;78.28;97140.03;5056665;28;19932;-58
2023/04/14 05:18:45;;;;;;;;;;;;;;;5.81;77.58;97155.63;5057054;28;19939;-58
2023/04/14 05:21:13;;;;;;;;;;;;;;;5.87;77.38;97157.13;5050213;28;20317;-57
2023/04/14 05:23:42;;;;;;;;;;;;;;;5.75;77.90;97159.50;5055436;28;20011;-57
2023/04/14 05:26:12;;;;;;;;;;;;;;;5.87;77.42;97156.34;5062515;28;19931;-59
2023/04/14 05:28:43;;;;;;;;;;;;;;;5.95;77.26;97163.75;5058983;28;19956;-57
2023/04/14 05:31:10;;;;;;;;;;;;;;;5.95;76.89;97158.34;5040322;28;19936;-58
2023/04/14 05:33:38;;;;;;;;;;;;;;;5.83;78.13;97158.03;5079312;28;19928;-59
2023/04/14 05:36:06;;;;;;;;;;;;;;;5.95;77.26;97155.66;5063897;28;20399;-57
2023/04/14 05:38:36;;;;;;;;;;;;;;;5.92;77.19;97164.34;5043398;28;20427;-57
2023/04/14 05:41:04;;;;;;;;;;;;;;;6.06;77.25;97159.75;5058862;28;20460;-57
2023/04/14 05:43:33;;;;;;;;;;;;;;;6.15;77.42;97163.34;5065459;28;19924;-57
2023/04/14 05:46:01;;;;;;;;;;;;;;;5.94;77.00;97159.44;5061916;28;20401;-58
2023/04/14 05:48:29;;;;;;;;;;;;;;;5.92;77.91;97153.56;5061306;28;19974;-57
2023/04/14 05:50:57;;;;;;;;;;;;;;;6.17;77.33;97155.75;5058671;28;19924;-57
2023/04/14 05:53:26;;;;;;;;;;;;;;;6.13;77.45;97162.06;5056660;28;19925;-58
2023/04/14 05:55:55;;;;;;;;;;;;;;;6.09;78.10;97145.66;5069116;28;19931;-59
2023/04/14 05:58:25;;;;;;;;;;;;;;;6.16;77.13;97146.06;5065645;28;19989;-59
2023/04/14 06:00:56;;;;;;;;;;;;;;;6.22;77.09;97147.53;5085958;28;19931;-58
2023/04/14 06:03:24;;;;;;;;;;;;;;;6.32;76.27;97151.94;5085737;28;20331;-57
2023/04/14 06:05:52;;;;;;;;;;;;;;;6.30;76.26;97165.72;5084315;28;19992;-58
2023/04/14 06:08:20;;;;;;;;;;;;;;;6.26;76.42;97158.53;5080932;28;19928;-60
2023/04/14 06:10:48;;;;;;;;;;;;;;;6.30;76.37;97171.13;5086339;28;19931;-57
2023/04/14 06:13:16;;;;;;;;;;;;;;;6.32;76.42;97172.72;5067423;28;19924;-57
2023/04/14 06:15:44;;;;;;;;;;;;;;;6.25;76.58;97167.75;5088769;28;19931;-58
2023/04/14 06:18:13;;;;;;;;;;;;;;;6.30;76.54;97159.53;5099338;28;19935;-57
2023/04/14 06:20:41;;;;;;;;;;;;;;;6.46;76.08;97171.59;5090085;28;19928;-56
2023/04/14 06:23:09;;;;;;;;;;;;;;;6.41;76.03;97165.53;5090941;28;19939;-56
2023/04/14 06:25:37;;;;;;;;;;;;;;;6.26;77.09;97161.22;5088885;28;19931;-56
2023/04/14 06:28:04;;;;;;;;;;;;;;;6.43;76.60;97163.31;5083379;28;19929;-58
2023/04/14 06:30:33;;;;;;;;;;;;;;;6.45;76.89;97161.91;5079767;28;19924;-56
2023/04/14 06:33:03;;;;;;;;;;;;;;;6.46;76.29;97160.00;5082410;28;20311;-56
2023/04/14 06:35:33;;;;;;;;;;;;;;;6.61;75.53;97151.59;5073045;28;20074;-56
2023/04/14 06:38:01;;;;;;;;;;;;;;;6.59;76.12;97151.06;5080516;28;19931;-56
2023/04/14 06:40:29;;;;;;;;;;;;;;;6.67;75.80;97144.19;5070891;28;20417;-56
2023/04/14 06:42:59;;;;;;;;;;;;;;;6.55;75.76;97153.59;5075487;28;19951;-56
2023/04/14 06:45:27;;;;;;;;;;;;;;;6.66;75.50;97148.78;5075161;28;19966;-56
2023/04/14 06:47:56;;;;;;;;;;;;;;;6.66;75.60;97154.19;5090309;28;19924;-56
2023/04/14 06:50:24;;;;;;;;;;;;;;;6.65;75.42;97154.47;5069656;28;19936;-56
2023/04/14 06:52:53;;;;;;;;;;;;;;;6.69;75.47;97150.06;5081919;28;19924;-60
2023/04/14 06:55:21;;;;;;;;;;;;;;;6.61;75.66;97151.59;5089780;28;21220;-56
2023/04/14 06:57:49;;;;;;;;;;;;;;;6.60;75.56;97152.66;5082744;28;19950;-56
2023/04/14 07:00:17;;;;;;;;;;;;;;;6.65;75.46;97154.47;5088716;28;19925;-59
2023/04/14 07:02:45;;;;;;;;;;;;;;;6.63;75.71;97146.69;5082847;28;20050;-57
2023/04/14 07:05:13;;;;;;;;;;;;;;;6.80;74.86;97146.81;5089975;28;19928;-56
2023/04/14 07:07:42;;;;;;;;;;;;;;;6.83;74.94;97140.03;5086294;28;19924;-56
2023/04/14 07:10:11;;;;;;;;;;;;;;;6.75;75.57;97144.22;5089181;28;19928;-59
2023/04/14 07:12:39;;;;;;;;;;;;;;;6.87;75.60;97146.41;5069454;28;19923;-56
2023/04/14 07:15:07;;;;;;;;;;;;;;;7.00;74.98;97155.56;5076011;28;19924;-57
2023/04/14 07:17:35;;;;;;;;;;;;;;;7.16;74.17;97159.50;5082987;28;20358;-57
2023/04/14 07:20:04;;;;;;;;;;;;;;;7.13;73.71;97149.28;5082626;28;19924;-57
2023/04/14 07:22:32;;;;;;;;;;;;;;;7.27;73.78;97155.44;5086957;28;19924;-57
2023/04/14 07:24:59;;;;;;;;;;;;;;;7.30;73.11;97151.34;5080914;28;19928;-57
2023/04/14 07:27:30;;;;;;;;;;;;;;;7.41;72.87;97152.66;5086826;28;19928;-57
2023/04/14 07:29:58;;;;;;;;;;;;;;;7.36;72.88;97147.38;5083957;28;20374;-57
2023/04/14 07:32:26;;;;;;;;;;;;;;;7.29;73.18;97149.72;5075614;28;19924;-57
2023/04/14 07:34:54;;;;;;;;;;;;;;;7.25;73.73;97152.25;5082361;28;19939;-56
2023/04/14 07:37:24;;;;;;;;;;;;;;;7.22;73.78;97152.06;5076356;28;19928;-58
2023/04/14 07:39:52;;;;;;;;;;;;;;;7.42;73.46;97153.47;5065324;28;19931;-57
2023/04/14 07:42:20;;;;;;;;;;;;;;;7.47;73.18;97150.63;5088538;28;19932;-57
2023/04/14 07:44:49;;;;;;;;;;;;;;;7.47;72.75;97140.63;5083663;28;20286;-56
2023/04/14 07:47:20;;;;;;;;;;;;;;;7.50;72.80;97152.69;5088391;28;19928;-56
2023/04/14 07:49:53;;;;;;;;;;;;;;;7.50;72.54;97155.41;5082395;28;19932;-58
2023/04/14 07:52:21;;;;;;;;;;;;;;;7.56;72.67;97154.16;5077949;28;19936;-57
2023/04/14 07:54:49;;;;;;;;;;;;;;;7.68;72.37;97149.00;5081964;28;19924;-56
2023/04/14 07:57:17;;;;;;;;;;;;;;;7.73;72.16;97151.56;5079015;28;19925;-57
2023/04/14 07:59:47;;;;;;;;;;;;;;;7.87;71.40;97146.84;5081259;28;20013;-57
2023/04/14 08:02:16;;;;;;;;;;;;;;;7.88;71.03;97147.63;5076044;28;20010;-56
2023/04/14 08:04:44;;;;;;;;;;;;;;;7.98;70.04;97152.75;5062746;28;19924;-56
2023/04/14 08:07:12;;;;;;;;;;;;;;;8.06;71.03;97151.22;5084544;28;19951;-58
2023/04/14 08:09:40;;;;;;;;;;;;;;;8.13;69.92;97149.63;5086695;28;19924;-56
2023/04/14 08:12:08;;;;;;;;;;;;;;;8.15;70.03;97152.06;5086248;28;19931;-59
2023/04/14 08:14:35;;;;;;;;;;;;;;;8.06;69.60;97154.72;5084191;28;20411;-57
2023/04/14 08:17:03;;;;;;;;;;;;;;;7.95;69.98;97149.91;5078993;28;19924;-56
2023/04/14 08:19:32;;;;;;;;;;;;;;;8.06;70.64;97143.09;5079849;28;19972;-56
2023/04/14 08:22:01;;;;;;;;;;;;;;;8.11;70.43;97146.47;5079786;28;19928;-56
2023/04/14 08:24:29;;;;;;;;;;;;;;;8.06;69.56;97153.91;5073172;28;19924;-56
2023/04/14 08:26:57;;;;;;;;;;;;;;;8.04;69.88;97148.00;5074943;28;19931;-56
2023/04/14 08:29:25;;;;;;;;;;;;;;;8.09;70.50;97155.97;5078719;28;19967;-56
2023/04/14 08:31:53;;;;;;;;;;;;;;;8.14;70.34;97151.22;5066936;28;19924;-56
2023/04/14 08:34:22;;;;;;;;;;;;;;;8.17;69.65;97149.81;5062431;28;19931;-56
2023/04/14 08:36:59;;;;;;;;;;;;;;;8.35;69.80;97151.44;5078379;28;20412;-57
2023/04/14 08:39:27;;;;;;;;;;;;;;;8.48;69.65;97143.56;5076278;28;19989;-57
2023/04/14 08:41:57;;;;;;;;;;;;;;;8.63;68.32;97137.69;5081861;28;19924;-57
2023/04/14 08:44:25;;;;;;;;;;;;;;;8.63;68.38;97134.97;5083818;28;19924;-58
2023/04/14 08:46:53;;;;;;;;;;;;;;;8.73;68.73;97145.47;5084379;28;19924;-56
2023/04/14 08:49:23;;;;;;;;;;;;;;;8.79;68.80;97152.34;5065636;28;19924;-56
2023/04/14 08:51:51;;;;;;;;;;;;;;;8.75;67.59;97154.09;5081601;28;19929;-59
2023/04/14 08:54:21;;;;;;;;;;;;;;;8.85;67.92;97159.22;5065093;28;19925;-56
2023/04/14 08:56:49;;;;;;;;;;;;;;;8.87;67.59;97156.97;5059114;28;19931;-56
2023/04/14 08:59:20;;;;;;;;;;;;;;;8.90;66.75;97159.06;5064564;28;19975;-56
2023/04/14 09:01:48;;;;;;;;;;;;;;;8.95;66.39;97160.81;5063175;28;19955;-56
2023/04/14 09:04:16;;;;;;;;;;;;;;;9.09;67.12;97166.84;5063871;28;19929;-56
2023/04/14 09:06:45;;;;;;;;;;;;;;;9.08;67.76;97167.16;5061315;28;20020;-56
2023/04/14 09:09:13;;;;;;;;;;;;;;;9.09;67.53;97166.03;5064406;28;19928;-58
2023/04/14 09:11:42;;;;;;;;;;;;;;;9.16;66.82;97159.03;5059981;28;19962;-56
2023/04/14 09:14:10;;;;;;;;;;;;;;;9.10;66.01;97157.59;5063751;28;19924;-58
2023/04/14 09:16:40;;;;;;;;;;;;;;;9.08;66.23;97161.75;5064657;28;19924;-56
2023/04/14 09:19:08;;;;;;;;;;;;;;;9.08;65.18;97167.16;5065241;28;20555;-62
2023/04/14 09:21:40;;;;;;;;;;;;;;;8.92;65.64;97170.34;5075073;28;19994;-57
2023/04/14 09:24:22;;;;;;;;;;;;;;;8.97;65.34;97165.91;5071126;28;19924;-58
2023/04/14 09:26:52;;;;;;;;;;;;;;;8.91;66.49;97163.34;5078763;28;20412;-57
2023/04/14 09:29:20;;;;;;;;;;;;;;;8.92;66.24;97173.06;5063755;28;19935;-56
2023/04/14 09:31:48;;;;;;;;;;;;;;;8.90;66.74;97183.44;5065529;28;19933;-56
2023/04/14 09:34:17;;;;;;;;;;;;;;;8.96;66.45;97181.34;5064481;28;19929;-56
2023/04/14 09:36:59;;;;;;;;;;;;;;;9.04;66.15;97171.63;5059311;28;19947;-57
2023/04/14 09:39:27;;;;;;;;;;;;;;;9.01;66.13;97177.69;5034165;28;20015;-57
2023/04/14 09:41:56;;;;;;;;;;;;;;;9.06;66.16;97180.25;5061063;28;19940;-57
2023/04/14 09:44:24;;;;;;;;;;;;;;;9.21;65.03;97168.91;5072088;28;19924;-57
2023/04/14 09:46:56;;;;;;;;;;;;;;;9.26;65.11;97166.03;5065201;28;19928;-58
2023/04/14 09:49:25;;;;;;;;;;;;;;;9.28;65.46;97169.22;5061704;28;19925;-56
2023/04/14 09:51:54;;;;;;;;;;;;;;;9.43;64.79;97166.03;5065264;28;19944;-59
2023/04/14 09:54:25;;;;;;;;;;;;;;;9.41;64.91;97168.25;5065071;28;19932;-58
2023/04/14 09:56:53;;;;;;;;;;;;;;;9.50;64.44;97167.44;5063276;28;20377;-57
2023/04/14 09:59:33;;;;;;;;;;;;;;;9.59;64.36;97177.16;5069947;28;20304;-56
2023/04/14 10:02:03;;;;;;;;;;;;;;;9.78;63.65;97165.94;5075390;28;19978;-57
2023/04/14 10:04:32;;;;;;;;;;;;;;;9.82;63.22;97166.09;5073572;28;19925;-59
2023/04/14 10:07:00;;;;;;;;;;;;;;;9.90;62.88;97159.81;5070994;28;19924;-56
2023/04/14 10:09:29;;;;;;;;;;;;;;;10.04;63.49;97154.19;5070105;28;19963;-57
2023/04/14 10:12:07;;;;;;;;;;;;;;;10.03;62.33;97149.88;5063587;28;20301;-56
2023/04/14 10:14:40;;;;;;;;;;;;;;;10.06;62.53;97149.22;5063443;28;19972;-57
2023/04/14 10:17:12;;;;;;;;;;;;;;;10.02;61.81;97143.66;5064019;28;20051;-57
2023/04/14 10:19:41;;;;;;;;;;;;;;;10.05;62.38;97134.84;5072720;28;19924;-56
2023/04/14 10:22:10;;;;;;;;;;;;;;;10.16;62.06;97124.44;5070554;28;19925;-57
2023/04/14 10:24:38;;;;;;;;;;;;;;;10.07;61.19;97120.97;5068922;28;19931;-57
2023/04/14 10:27:05;;;;;;;;;;;;;;;10.19;60.98;97121.06;5066485;28;19964;-57
2023/04/14 10:29:33;;;;;;;;;;;;;;;10.32;60.61;97111.13;5065070;28;19929;-58
2023/04/14 10:32:04;;;;;;;;;;;;;;;10.49;61.35;97117.25;5060201;28;19939;-57
2023/04/14 10:34:33;;;;;;;;;;;;;;;10.34;60.75;97109.69;5066110;28;19925;-56
2023/04/14 10:37:13;;;;;;;;;;;;;;;10.28;61.12;97113.72;5066210;28;19925;-57
2023/04/14 10:39:44;;;;;;;;;;;;;;;10.28;60.41;97111.00;5062256;28;19939;-57
2023/04/14 10:42:12;;;;;;;;;;;;;;;10.39;60.91;97112.19;5063259;28;19971;-57
2023/04/14 10:44:40;;;;;;;;;;;;;;;10.45;60.40;97113.59;5064599;28;19924;-57
2023/04/14 10:47:09;;;;;;;;;;;;;;;10.45;60.46;97104.66;5062750;28;19933;-58
2023/04/14 10:49:39;;;;;;;;;;;;;;;10.43;59.75;97104.97;5060785;28;20386;-57
2023/04/14 10:52:07;;;;;;;;;;;;;;;10.52;58.89;97113.06;5064822;28;19933;-57
2023/04/14 10:54:50;;;;;;;;;;;;;;;10.84;58.85;97111.53;5069176;28;19924;-57
2023/04/14 10:57:20;;;;;;;;;;;;;;;10.86;57.76;97103.84;5062894;28;19940;-57
2023/04/14 10:59:53;;;;;;;;;;;;;;;10.87;58.41;97097.31;5061177;28;19952;-57
2023/04/14 11:02:25;;;;;;;;;;;;;;;10.92;58.30;97102.53;5064917;28;20360;-57
2023/04/14 11:05:03;;;;;;;;;;;;;;;10.88;58.17;97092.66;5056992;28;20384;-57
2023/04/14 11:07:32;;;;;;;;;;;;;;;10.93;57.94;97095.97;5060270;28;19929;-59
2023/04/14 11:10:02;;;;;;;;;;;;;;;10.99;57.21;97097.34;5054409;28;19933;-59
2023/04/14 11:12:30;;;;;;;;;;;;;;;11.34;57.13;97096.22;5061511;28;19935;-57
2023/04/14 11:15:01;;;;;;;;;;;;;;;11.24;56.26;97083.84;5068332;28;19924;-58
2023/04/14 11:17:36;;;;;;;;;;;;;;;11.32;56.08;97093.03;5069838;28;19932;-57
2023/04/14 11:20:13;;;;;;;;;;;;;;;11.37;56.15;97085.47;5063460;28;20189;-57
2023/04/14 11:22:43;;;;;;;;;;;;;;;11.49;56.07;97090.94;5062634;28;19955;-57
2023/04/14 11:25:11;;;;;;;;;;;;;;;11.41;55.32;97083.66;5069557;28;20116;-57
2023/04/14 11:27:39;;;;;;;;;;;;;;;11.44;56.07;97082.19;5068269;28;20699;-57
2023/04/14 11:30:08;;;;;;;;;;;;;;;11.50;55.71;97081.66;5059943;28;19975;-57
2023/04/14 11:32:47;;;;;;;;;;;;;;;11.69;55.31;97072.94;5063690;28;20301;-57
2023/04/14 11:35:15;;;;;;;;;;;;;;;11.74;55.00;97082.81;5058450;28;19925;-57
2023/04/14 11:37:43;;;;;;;;;;;;;;;11.65;54.25;97080.19;5063611;28;19925;-57
2023/04/14 11:40:11;;;;;;;;;;;;;;;11.79;53.80;97075.22;5061130;28;19931;-57
2023/04/14 11:42:43;;;;;;;;;;;;;;;11.94;54.15;97076.50;5069312;28;19924;-57
2023/04/14 11:45:12;;;;;;;;;;;;;;;12.06;54.23;97068.34;5068893;28;19930;-57
2023/04/14 11:47:40;;;;;;;;;;;;;;;12.14;53.27;97063.09;5072906;28;19925;-57
2023/04/14 11:50:10;;;;;;;;;;;;;;;12.07;53.62;97053.59;5069901;28;19924;-60
2023/04/14 11:52:43;;;;;;;;;;;;;;;12.14;53.10;97053.00;5060785;28;19925;-57
2023/04/14 11:55:13;;;;;;;;;;;;;;;12.33;52.58;97049.69;5065808;28;20216;-57
2023/04/14 11:57:43;;;;;;;;;;;;;;;12.36;52.54;97040.03;5062109;28;19925;-57
2023/04/14 12:00:11;;;;;;;;;;;;;;;12.28;51.96;97042.56;5062076;28;19924;-57
2023/04/14 12:02:39;;;;;;;;;;;;;;;12.26;50.42;97049.50;5058675;28;19932;-59
2023/04/14 12:05:07;;;;;;;;;;;;;;;12.14;50.88;97035.88;5060507;28;19955;-57
2023/04/14 12:07:37;;;;;;;;;;;;;;;12.29;50.72;97032.44;5069904;28;19932;-57
2023/04/14 12:10:05;;;;;;;;;;;;;;;12.42;50.75;97027.78;5068252;28;19964;-57
2023/04/14 12:12:33;;;;;;;;;;;;;;;12.16;50.81;97028.97;5068406;28;19928;-57
2023/04/14 12:15:01;;;;;;;;;;;;;;;12.16;51.15;97022.72;5084428;28;19931;-58
2023/04/14 12:17:29;;;;;;;;;;;;;;;12.17;50.33;97024.31;5088005;28;19934;-57
2023/04/14 12:19:57;;;;;;;;;;;;;;;12.07;51.27;97009.22;5077086;28;19956;-59
2023/04/14 12:22:25;;;;;;;;;;;;;;;12.12;51.26;97010.94;5086342;28;19928;-57
2023/04/14 12:24:55;;;;;;;;;;;;;;;12.11;51.62;97003.91;5087758;28;19932;-57
2023/04/14 12:27:23;;;;;;;;;;;;;;;12.07;49.78;97004.56;5086980;28;20358;-57
2023/04/14 12:29:51;;;;;;;;;;;;;;;12.25;51.11;97015.19;5082366;28;20393;-57
2023/04/14 12:32:20;;;;;;;;;;;;;;;12.27;49.76;97004.78;5089663;28;19928;-57
2023/04/14 12:34:52;;;;;;;;;;;;;;;12.35;49.24;96998.38;5086755;28;20003;-58
2023/04/14 12:37:23;;;;;;;;;;;;;;;12.61;50.11;96997.97;5087115;28;19935;-57
2023/04/14 12:39:51;;;;;;;;;;;;;;;12.55;49.62;96991.97;5083691;28;19935;-59
2023/04/14 12:42:20;;;;;;;;;;;;;;;12.54;48.81;96987.66;5078407;28;20026;-57
2023/04/14 12:44:55;;;;;;;;;;;;;;;12.68;49.74;96987.28;5082844;28;19928;-59
2023/04/14 12:47:27;;;;;;;;;;;;;;;12.58;49.76;96976.88;5085758;28;19925;-57
2023/04/14 12:50:01;;;;;;;;;;;;;;;12.60;49.06;96977.31;5055159;28;19925;-58
2023/04/14 12:52:33;;;;;;;;;;;;;;;12.52;48.89;96978.25;5067785;28;20454;-57
2023/04/14 12:55:01;;;;;;;;;;;;;;;12.45;49.06;96970.66;5036128;28;19960;-57
2023/04/14 12:57:31;;;;;;;;;;;;;;;12.31;49.59;96973.00;5044825;28;19925;-57
2023/04/14 13:00:03;;;;;;;;;;;;;;;12.19;49.04;96973.00;5032625;28;19925;-57
2023/04/14 13:02:32;;;;;;;;;;;;;;;11.97;49.58;96966.94;5036655;28;20390;-57
2023/04/14 13:05:00;;;;;;;;;;;;;;;12.04;50.11;96959.00;5045491;28;19979;-57
2023/04/14 13:07:28;;;;;;;;;;;;;;;12.03;50.69;96957.38;5040240;28;19925;-57